Airfield :
LOGIN :

Register | Disclaimer

   EN    FR    IT 

 










Legend :    VFR   Marginal VFR   IFR   Intensive IFR   Very Intensive IFR
Visi :
Ceiling :
>= 8 km
>= 3000ft
5 to 8 km
1000 to 3000 ft
1500m to 5 km
500 to 1000 ft
800 to 1500m
200 to 500 ft
< 800m
< 200 ft
Symbols :   Thunderstorms  Fog  Heavy snow  Heavy precipitations  Wind > 20 kt
SIGMETs :     Misc.  Thunderstorms  Icing  Turbulence  Mountain Waves  Volcanic Ashes







- Airport Elevation : 5600 ft
- IATA code : SMV


LSZS - Samedan

CURRENT METAR :
  • 261820Z AUTO 16006KT 130V190 CAVOK 14/06 Q1022

EXPIRED METARs :
  • 261750Z AUTO 23011KT CAVOK 14/07 Q1021
  • 261720Z AUTO VRB04KT CAVOK 16/05 Q1021
  • 261650Z 03009KT CAVOK 19/M00 Q1020 RMK W
  • 261620Z 03012KT CAVOK 19/M01 Q1020 RMK V
  • 261550Z 04010KT CAVOK 19/M02 Q1020 RMK U

TAF TAF LSZS
Valid from the 26 at 15:00 until the 27 at 00:00 UTC


261425Z 2615/2624 05010KT CAVOK TX20/2615Z
BECMG 2618/2621 VRB03KT
ATIS : +41 81 834 93 24
No reported NOTAMs for that airfield.



MET'MAP, your aeronautical weather chart ! - Copyright ORBIFLY December 2007 - Disclaimer

ORBIFLY MET'MAP TEAM :

Programming & Development : Alexandra Zaïnal
Concept & Development : Baudouin d'Aumeries
Co-Development & Prog : Marc-Olivier Méhu
Technical & hardware support : Manuel Goepfert

Contact : metmap@orbifly.com




SOURCES & CREDITS :

   NOAA